Pagrindinis puslapis
METAR-TAF:

METAR-TAF

Oro uostai :

Ščecinas, Lenkija

platuma: 53-35N, ilguma: 014-54E, Aukštis: 1 m

Dabartinis oras

Ataskaita buvo paskelbta 7 minutes, ne 05:00 UTC
Vėjas 11 kt iš Pietvakarių, svyruoja nuo Pietų ir Vakarų/Pietvakarių
Temperatūra 9°C
Drėgmė 71%
Slėgis 1006 hPa
Matomumas 10 km arba daugiau
Mažai debesys ne aukštis 1600 ft
Išsisklaidę debesys ne aukštis 3800 ft
lietus

METAR: EPSC 170500Z 22011KT 190V250 9999 -RA FEW016 SCT038 09/04 Q1006

Laikas: 06:07 (05:07 UTC)

Prognozė

Ataskaita buvo paskelbta 5 valandos ir 37 minutes, ne 23:30 UTC
Prognozė galioja nuo 17 metu 00 UTC su 17 metu 24 UTC
Vėjas 15 kt iš Pietvakarių
Matomumas 10 km arba daugiau
nėra debesų žemiau 1500 m ir nėra kamuolinių lietaus debesų
Laikinai
nuo 17 metu 00 UTC su 17 metu 12 UTC
Vėjas 21 kt iš Pietų su gūsio iki 35 kt
lietus
Tikimybė 40% :
Laikinai
nuo 17 metu 12 UTC su 17 metu 15 UTC
Vėjas 15 kt iš Pietvakarių su gūsio iki 25 kt

TAF: EPSC 162330Z 1700/1724 22015KT CAVOK TEMPO 1700/1712 19021G35KT -RA PROB40 TEMPO 1712/1715 23015G25KT

Orai ataskaitas ir orų prognozės (METAR, TAF).

turimą stotys yra geltonos ir raudonos taškus žemėlapyje.

Perkelti pele per norėdami pamatyti stoties vardą.

Tada spustelėkite, norėdami matyti oro stebėjimo ir prognozės.

Norėdami pakeisti žemėlapį: spustelėkite ant žalios mygtukų su juodo kryžiaus žemyn,; žalią mygtuką su brūkšneliu, jei norite nutolinti; arba žalių rodyklių gretimoms žemėlapius.


METAR-TAF: